sensor_id;sensor_type;location;lat;lon;timestamp;temperature;humidity
20158;DHT22;10239;56.820;24.416;2022-10-16T00:01:30;12.00;99.90
20158;DHT22;10239;56.820;24.416;2022-10-16T00:03:59;11.90;99.90
20158;DHT22;10239;56.820;24.416;2022-10-16T00:06:29;11.90;99.90
20158;DHT22;10239;56.820;24.416;2022-10-16T00:08:57;12.00;99.90
20158;DHT22;10239;56.820;24.416;2022-10-16T00:11:30;12.00;99.90
20158;DHT22;10239;56.820;24.416;2022-10-16T00:14:02;12.10;99.90
20158;DHT22;10239;56.820;24.416;2022-10-16T00:16:31;12.20;99.90
20158;DHT22;10239;56.820;24.416;2022-10-16T00:18:59;12.20;99.90
20158;DHT22;10239;56.820;24.416;2022-10-16T00:21:29;12.20;99.90
20158;DHT22;10239;56.820;24.416;2022-10-16T00:24:07;12.20;99.90
20158;DHT22;10239;56.820;24.416;2022-10-16T00:26:38;12.30;99.90
20158;DHT22;10239;56.820;24.416;2022-10-16T00:29:06;12.40;99.90
20158;DHT22;10239;56.820;24.416;2022-10-16T00:31:34;12.20;99.90
20158;DHT22;10239;56.820;24.416;2022-10-16T00:34:02;12.30;99.90
20158;DHT22;10239;56.820;24.416;2022-10-16T00:36:29;12.50;99.90
20158;DHT22;10239;56.820;24.416;2022-10-16T00:38:58;12.30;99.90
20158;DHT22;10239;56.820;24.416;2022-10-16T00:41:29;12.20;99.90
20158;DHT22;10239;56.820;24.416;2022-10-16T00:44:03;12.20;99.90
20158;DHT22;10239;56.820;24.416;2022-10-16T00:46:42;12.20;99.90
20158;DHT22;10239;56.820;24.416;2022-10-16T00:49:11;12.10;99.90
20158;DHT22;10239;56.820;24.416;2022-10-16T00:51:50;12.10;99.90
20158;DHT22;10239;56.820;24.416;2022-10-16T00:54:30;12.10;99.90
20158;DHT22;10239;56.820;24.416;2022-10-16T00:57:01;12.20;99.90
20158;DHT22;10239;56.820;24.416;2022-10-16T00:59:34;12.20;99.90
20158;DHT22;10239;56.820;24.416;2022-10-16T01:02:04;12.30;99.90
20158;DHT22;10239;56.820;24.416;2022-10-16T01:04:52;12.20;99.90
20158;DHT22;10239;56.820;24.416;2022-10-16T01:12:50;12.20;99.90
20158;DHT22;10239;56.820;24.416;2022-10-16T01:20:35;12.30;99.90
20158;DHT22;10239;56.820;24.416;2022-10-16T01:28:52;12.20;99.90
20158;DHT22;10239;56.820;24.416;2022-10-16T01:31:24;12.20;99.90
20158;DHT22;10239;56.820;24.416;2022-10-16T01:34:18;12.20;99.90
20158;DHT22;10239;56.820;24.416;2022-10-16T01:36:53;12.20;99.90
20158;DHT22;10239;56.820;24.416;2022-10-16T01:39:33;12.30;99.90
20158;DHT22;10239;56.820;24.416;2022-10-16T01:42:13;12.20;99.90
20158;DHT22;10239;56.820;24.416;2022-10-16T01:44:44;12.10;99.90
20158;DHT22;10239;56.820;24.416;2022-10-16T01:47:14;12.10;99.90
20158;DHT22;10239;56.820;24.416;2022-10-16T01:49:44;12.10;99.90
20158;DHT22;10239;56.820;24.416;2022-10-16T01:52:17;12.20;99.90
20158;DHT22;10239;56.820;24.416;2022-10-16T01:54:47;12.10;99.90
20158;DHT22;10239;56.820;24.416;2022-10-16T01:57:18;12.20;99.90
20158;DHT22;10239;56.820;24.416;2022-10-16T01:59:51;12.10;99.90
20158;DHT22;10239;56.820;24.416;2022-10-16T02:02:20;12.10;99.90
20158;DHT22;10239;56.820;24.416;2022-10-16T02:04:57;12.20;99.90
20158;DHT22;10239;56.820;24.416;2022-10-16T02:07:25;12.10;99.90
20158;DHT22;10239;56.820;24.416;2022-10-16T02:09:54;12.20;99.90
20158;DHT22;10239;56.820;24.416;2022-10-16T02:12:31;12.20;99.90
20158;DHT22;10239;56.820;24.416;2022-10-16T02:15:00;12.30;99.90
20158;DHT22;10239;56.820;24.416;2022-10-16T02:17:27;12.30;99.90
20158;DHT22;10239;56.820;24.416;2022-10-16T02:19:56;12.40;99.90
20158;DHT22;10239;56.820;24.416;2022-10-16T02:22:44;12.50;99.90
20158;DHT22;10239;56.820;24.416;2022-10-16T02:25:35;12.30;99.90
20158;DHT22;10239;56.820;24.416;2022-10-16T02:28:11;12.30;99.90
20158;DHT22;10239;56.820;24.416;2022-10-16T02:30:50;12.20;99.90
20158;DHT22;10239;56.820;24.416;2022-10-16T02:33:19;12.40;99.90
20158;DHT22;10239;56.820;24.416;2022-10-16T02:35:50;12.40;99.90
20158;DHT22;10239;56.820;24.416;2022-10-16T02:38:20;12.40;99.90
20158;DHT22;10239;56.820;24.416;2022-10-16T02:40:48;12.60;99.90
20158;DHT22;10239;56.820;24.416;2022-10-16T02:43:16;12.50;99.90
20158;DHT22;10239;56.820;24.416;2022-10-16T02:45:44;12.40;99.90
20158;DHT22;10239;56.820;24.416;2022-10-16T02:48:12;12.60;99.90
20158;DHT22;10239;56.820;24.416;2022-10-16T02:50:39;12.60;99.90
20158;DHT22;10239;56.820;24.416;2022-10-16T02:53:07;12.80;99.90
20158;DHT22;10239;56.820;24.416;2022-10-16T02:55:34;12.70;99.90
20158;DHT22;10239;56.820;24.416;2022-10-16T02:58:02;12.50;99.90
20158;DHT22;10239;56.820;24.416;2022-10-16T03:00:29;12.50;99.90
20158;DHT22;10239;56.820;24.416;2022-10-16T03:02:57;12.50;99.90
20158;DHT22;10239;56.820;24.416;2022-10-16T03:05:25;12.50;99.90
20158;DHT22;10239;56.820;24.416;2022-10-16T03:07:52;12.60;99.90
20158;DHT22;10239;56.820;24.416;2022-10-16T03:10:20;12.70;99.90
20158;DHT22;10239;56.820;24.416;2022-10-16T03:12:47;12.60;99.90
20158;DHT22;10239;56.820;24.416;2022-10-16T03:15:15;12.60;99.90
20158;DHT22;10239;56.820;24.416;2022-10-16T03:17:43;12.70;99.90
20158;DHT22;10239;56.820;24.416;2022-10-16T03:20:11;12.80;99.90
20158;DHT22;10239;56.820;24.416;2022-10-16T03:22:38;12.80;99.90
20158;DHT22;10239;56.820;24.416;2022-10-16T03:25:06;12.80;99.90
20158;DHT22;10239;56.820;24.416;2022-10-16T03:27:34;13.00;99.90
20158;DHT22;10239;56.820;24.416;2022-10-16T03:30:01;13.10;99.90
20158;DHT22;10239;56.820;24.416;2022-10-16T03:32:28;13.10;99.90
20158;DHT22;10239;56.820;24.416;2022-10-16T03:34:59;12.90;99.90
20158;DHT22;10239;56.820;24.416;2022-10-16T03:37:27;12.90;99.90
20158;DHT22;10239;56.820;24.416;2022-10-16T03:39:55;13.00;99.90
20158;DHT22;10239;56.820;24.416;2022-10-16T03:42:23;13.00;99.90
20158;DHT22;10239;56.820;24.416;2022-10-16T03:44:51;13.00;99.90
20158;DHT22;10239;56.820;24.416;2022-10-16T03:47:18;13.00;99.90
20158;DHT22;10239;56.820;24.416;2022-10-16T03:49:49;13.10;99.90
20158;DHT22;10239;56.820;24.416;2022-10-16T03:52:17;13.00;99.90
20158;DHT22;10239;56.820;24.416;2022-10-16T03:54:50;13.10;99.90
20158;DHT22;10239;56.820;24.416;2022-10-16T03:57:17;13.20;99.90
20158;DHT22;10239;56.820;24.416;2022-10-16T03:59:45;13.20;99.90
20158;DHT22;10239;56.820;24.416;2022-10-16T04:02:12;13.10;99.90
20158;DHT22;10239;56.820;24.416;2022-10-16T04:04:40;13.20;99.90
20158;DHT22;10239;56.820;24.416;2022-10-16T04:07:07;13.20;99.90
20158;DHT22;10239;56.820;24.416;2022-10-16T04:09:35;13.30;99.90
20158;DHT22;10239;56.820;24.416;2022-10-16T04:12:02;13.30;99.90
20158;DHT22;10239;56.820;24.416;2022-10-16T04:14:30;13.30;99.90
20158;DHT22;10239;56.820;24.416;2022-10-16T04:16:57;13.20;99.90
20158;DHT22;10239;56.820;24.416;2022-10-16T04:19:25;13.10;99.90
20158;DHT22;10239;56.820;24.416;2022-10-16T04:21:53;13.10;99.90
20158;DHT22;10239;56.820;24.416;2022-10-16T04:24:21;13.30;99.90
20158;DHT22;10239;56.820;24.416;2022-10-16T04:26:48;13.40;99.90
20158;DHT22;10239;56.820;24.416;2022-10-16T04:29:16;13.40;99.90
20158;DHT22;10239;56.820;24.416;2022-10-16T04:31:43;13.20;99.90
20158;DHT22;10239;56.820;24.416;2022-10-16T04:34:11;13.20;99.90
20158;DHT22;10239;56.820;24.416;2022-10-16T04:36:38;13.20;99.90
20158;DHT22;10239;56.820;24.416;2022-10-16T04:39:05;13.20;99.90
20158;DHT22;10239;56.820;24.416;2022-10-16T04:41:33;13.50;99.90
20158;DHT22;10239;56.820;24.416;2022-10-16T04:44:00;13.40;99.90
20158;DHT22;10239;56.820;24.416;2022-10-16T04:46:28;13.50;99.90
20158;DHT22;10239;56.820;24.416;2022-10-16T04:48:56;13.50;99.90
20158;DHT22;10239;56.820;24.416;2022-10-16T04:51:23;13.40;99.90
20158;DHT22;10239;56.820;24.416;2022-10-16T04:53:52;13.30;99.90
20158;DHT22;10239;56.820;24.416;2022-10-16T04:56:21;13.50;99.90
20158;DHT22;10239;56.820;24.416;2022-10-16T04:58:48;13.40;99.90
20158;DHT22;10239;56.820;24.416;2022-10-16T05:01:16;13.40;99.90
20158;DHT22;10239;56.820;24.416;2022-10-16T05:03:44;13.40;99.90
20158;DHT22;10239;56.820;24.416;2022-10-16T05:06:12;13.40;99.90
20158;DHT22;10239;56.820;24.416;2022-10-16T05:08:39;13.50;99.90
20158;DHT22;10239;56.820;24.416;2022-10-16T05:11:07;13.40;99.90
20158;DHT22;10239;56.820;24.416;2022-10-16T05:13:34;13.30;99.90
20158;DHT22;10239;56.820;24.416;2022-10-16T05:16:02;13.30;99.90
20158;DHT22;10239;56.820;24.416;2022-10-16T05:18:30;13.20;99.90
20158;DHT22;10239;56.820;24.416;2022-10-16T05:20:57;13.50;99.90
20158;DHT22;10239;56.820;24.416;2022-10-16T05:23:24;13.30;99.90
20158;DHT22;10239;56.820;24.416;2022-10-16T05:25:56;13.40;99.90
20158;DHT22;10239;56.820;24.416;2022-10-16T05:28:26;13.40;99.90
20158;DHT22;10239;56.820;24.416;2022-10-16T05:30:54;13.60;99.90
20158;DHT22;10239;56.820;24.416;2022-10-16T05:33:23;13.50;99.90
20158;DHT22;10239;56.820;24.416;2022-10-16T05:35:52;13.50;99.90
20158;DHT22;10239;56.820;24.416;2022-10-16T05:38:19;13.40;99.90
20158;DHT22;10239;56.820;24.416;2022-10-16T05:40:53;13.60;99.90
20158;DHT22;10239;56.820;24.416;2022-10-16T05:43:20;13.70;99.90
20158;DHT22;10239;56.820;24.416;2022-10-16T05:46:00;13.50;99.90
20158;DHT22;10239;56.820;24.416;2022-10-16T05:48:28;13.60;99.90
20158;DHT22;10239;56.820;24.416;2022-10-16T05:51:01;13.50;99.90
20158;DHT22;10239;56.820;24.416;2022-10-16T05:53:31;13.50;99.90
20158;DHT22;10239;56.820;24.416;2022-10-16T05:55:59;13.50;99.90
20158;DHT22;10239;56.820;24.416;2022-10-16T05:58:32;13.50;99.90
20158;DHT22;10239;56.820;24.416;2022-10-16T06:01:02;13.60;99.90
20158;DHT22;10239;56.820;24.416;2022-10-16T06:03:30;13.70;99.90
20158;DHT22;10239;56.820;24.416;2022-10-16T06:05:58;13.90;99.90
20158;DHT22;10239;56.820;24.416;2022-10-16T06:08:25;13.80;99.90
20158;DHT22;10239;56.820;24.416;2022-10-16T06:11:07;13.70;99.90
20158;DHT22;10239;56.820;24.416;2022-10-16T06:13:36;13.80;99.90
20158;DHT22;10239;56.820;24.416;2022-10-16T06:16:04;13.90;99.90
20158;DHT22;10239;56.820;24.416;2022-10-16T06:18:31;13.90;99.90
20158;DHT22;10239;56.820;24.416;2022-10-16T06:20:59;14.00;99.90
20158;DHT22;10239;56.820;24.416;2022-10-16T06:23:28;14.00;99.90
20158;DHT22;10239;56.820;24.416;2022-10-16T06:26:07;14.00;99.90
20158;DHT22;10239;56.820;24.416;2022-10-16T06:28:35;14.00;99.90
20158;DHT22;10239;56.820;24.416;2022-10-16T06:31:04;14.00;99.90
20158;DHT22;10239;56.820;24.416;2022-10-16T06:33:35;14.10;99.90
20158;DHT22;10239;56.820;24.416;2022-10-16T06:38:36;13.90;99.90
20158;DHT22;10239;56.820;24.416;2022-10-16T06:41:04;14.20;99.90
20158;DHT22;10239;56.820;24.416;2022-10-16T06:43:33;14.20;99.90
20158;DHT22;10239;56.820;24.416;2022-10-16T06:46:03;14.30;99.90
20158;DHT22;10239;56.820;24.416;2022-10-16T06:48:31;14.10;99.90
20158;DHT22;10239;56.820;24.416;2022-10-16T06:51:01;14.00;99.90
20158;DHT22;10239;56.820;24.416;2022-10-16T06:53:36;14.00;99.90
20158;DHT22;10239;56.820;24.416;2022-10-16T06:56:27;14.10;99.90
20158;DHT22;10239;56.820;24.416;2022-10-16T06:58:56;14.20;99.90
20158;DHT22;10239;56.820;24.416;2022-10-16T07:01:26;14.20;99.90
20158;DHT22;10239;56.820;24.416;2022-10-16T07:03:54;14.20;99.90
20158;DHT22;10239;56.820;24.416;2022-10-16T07:06:23;14.30;99.90
20158;DHT22;10239;56.820;24.416;2022-10-16T07:08:52;14.20;99.90
20158;DHT22;10239;56.820;24.416;2022-10-16T07:11:21;14.30;99.90
20158;DHT22;10239;56.820;24.416;2022-10-16T07:13:50;14.10;99.90
20158;DHT22;10239;56.820;24.416;2022-10-16T07:16:23;14.10;99.90
20158;DHT22;10239;56.820;24.416;2022-10-16T07:18:51;14.20;99.90
20158;DHT22;10239;56.820;24.416;2022-10-16T07:21:22;14.20;99.90
20158;DHT22;10239;56.820;24.416;2022-10-16T07:23:55;14.00;99.90
20158;DHT22;10239;56.820;24.416;2022-10-16T07:26:24;14.10;99.90
20158;DHT22;10239;56.820;24.416;2022-10-16T07:28:52;14.20;99.90
20158;DHT22;10239;56.820;24.416;2022-10-16T07:31:20;14.30;99.90
20158;DHT22;10239;56.820;24.416;2022-10-16T07:33:48;14.20;99.90
20158;DHT22;10239;56.820;24.416;2022-10-16T07:36:17;14.30;99.90
20158;DHT22;10239;56.820;24.416;2022-10-16T07:38:46;14.40;99.90
20158;DHT22;10239;56.820;24.416;2022-10-16T07:41:16;14.30;99.90
20158;DHT22;10239;56.820;24.416;2022-10-16T07:43:48;14.40;99.90
20158;DHT22;10239;56.820;24.416;2022-10-16T07:46:18;14.30;99.90
20158;DHT22;10239;56.820;24.416;2022-10-16T07:48:46;14.10;99.90
20158;DHT22;10239;56.820;24.416;2022-10-16T07:51:17;14.30;99.90
20158;DHT22;10239;56.820;24.416;2022-10-16T07:53:46;14.30;99.90
20158;DHT22;10239;56.820;24.416;2022-10-16T07:56:15;14.40;99.90
20158;DHT22;10239;56.820;24.416;2022-10-16T07:58:43;14.50;99.90
20158;DHT22;10239;56.820;24.416;2022-10-16T08:01:13;14.60;99.90
20158;DHT22;10239;56.820;24.416;2022-10-16T08:03:45;14.60;99.90
20158;DHT22;10239;56.820;24.416;2022-10-16T08:06:13;14.60;99.90
20158;DHT22;10239;56.820;24.416;2022-10-16T08:08:41;14.60;99.90
20158;DHT22;10239;56.820;24.416;2022-10-16T08:11:09;14.70;99.90
20158;DHT22;10239;56.820;24.416;2022-10-16T08:13:37;14.40;99.90
20158;DHT22;10239;56.820;24.416;2022-10-16T08:16:05;14.40;99.90
20158;DHT22;10239;56.820;24.416;2022-10-16T08:18:36;14.50;99.90
20158;DHT22;10239;56.820;24.416;2022-10-16T08:21:05;14.70;99.90
20158;DHT22;10239;56.820;24.416;2022-10-16T08:23:33;14.60;99.90
20158;DHT22;10239;56.820;24.416;2022-10-16T08:26:06;14.70;99.90
20158;DHT22;10239;56.820;24.416;2022-10-16T08:28:35;14.80;99.90
20158;DHT22;10239;56.820;24.416;2022-10-16T08:31:11;14.60;99.90
20158;DHT22;10239;56.820;24.416;2022-10-16T08:33:41;14.80;99.90
20158;DHT22;10239;56.820;24.416;2022-10-16T08:36:10;14.70;99.90
20158;DHT22;10239;56.820;24.416;2022-10-16T08:38:38;14.70;99.90
20158;DHT22;10239;56.820;24.416;2022-10-16T08:46:45;14.90;99.90
20158;DHT22;10239;56.820;24.416;2022-10-16T08:49:17;14.90;99.90
20158;DHT22;10239;56.820;24.416;2022-10-16T08:51:45;14.80;99.90
20158;DHT22;10239;56.820;24.416;2022-10-16T08:54:23;14.80;99.90
20158;DHT22;10239;56.820;24.416;2022-10-16T08:57:00;14.90;99.90
20158;DHT22;10239;56.820;24.416;2022-10-16T08:59:31;14.80;99.90
20158;DHT22;10239;56.820;24.416;2022-10-16T09:01:59;14.80;99.90
20158;DHT22;10239;56.820;24.416;2022-10-16T09:08:12;14.60;99.90
20158;DHT22;10239;56.820;24.416;2022-10-16T09:21:09;15.00;99.90
20158;DHT22;10239;56.820;24.416;2022-10-16T09:23:39;14.90;99.90
20158;DHT22;10239;56.820;24.416;2022-10-16T09:26:12;15.20;99.90
20158;DHT22;10239;56.820;24.416;2022-10-16T09:28:40;15.40;99.90
20158;DHT22;10239;56.820;24.416;2022-10-16T09:31:16;15.30;99.90
20158;DHT22;10239;56.820;24.416;2022-10-16T09:33:47;15.50;99.90
20158;DHT22;10239;56.820;24.416;2022-10-16T09:36:17;15.20;99.90
20158;DHT22;10239;56.820;24.416;2022-10-16T09:38:45;15.40;99.90
20158;DHT22;10239;56.820;24.416;2022-10-16T09:41:20;15.40;99.90
20158;DHT22;10239;56.820;24.416;2022-10-16T09:44:01;15.50;99.90
20158;DHT22;10239;56.820;24.416;2022-10-16T09:46:31;15.30;99.90
20158;DHT22;10239;56.820;24.416;2022-10-16T09:49:01;15.40;99.90
20158;DHT22;10239;56.820;24.416;2022-10-16T09:51:34;15.40;99.90
20158;DHT22;10239;56.820;24.416;2022-10-16T09:56:37;15.00;99.90
20158;DHT22;10239;56.820;24.416;2022-10-16T09:59:17;15.10;99.90
20158;DHT22;10239;56.820;24.416;2022-10-16T10:01:50;15.20;99.90
20158;DHT22;10239;56.820;24.416;2022-10-16T10:04:23;15.30;99.90
20158;DHT22;10239;56.820;24.416;2022-10-16T10:06:56;15.10;99.90
20158;DHT22;10239;56.820;24.416;2022-10-16T10:09:44;15.10;99.90
20158;DHT22;10239;56.820;24.416;2022-10-16T10:12:24;15.40;99.90
20158;DHT22;10239;56.820;24.416;2022-10-16T10:14:56;15.20;99.90
20158;DHT22;10239;56.820;24.416;2022-10-16T10:17:27;15.20;99.90
20158;DHT22;10239;56.820;24.416;2022-10-16T10:19:58;15.20;99.90
20158;DHT22;10239;56.820;24.416;2022-10-16T10:27:39;15.10;99.90
20158;DHT22;10239;56.820;24.416;2022-10-16T10:30:38;15.20;99.90
20158;DHT22;10239;56.820;24.416;2022-10-16T10:36:17;15.20;99.90
20158;DHT22;10239;56.820;24.416;2022-10-16T10:41:56;15.20;99.90
20158;DHT22;10239;56.820;24.416;2022-10-16T10:44:55;15.10;99.90
20158;DHT22;10239;56.820;24.416;2022-10-16T10:50:54;15.20;99.90
20158;DHT22;10239;56.820;24.416;2022-10-16T11:07:32;15.40;99.90
20158;DHT22;10239;56.820;24.416;2022-10-16T11:10:23;15.30;99.90
20158;DHT22;10239;56.820;24.416;2022-10-16T11:12:58;15.40;99.90
20158;DHT22;10239;56.820;24.416;2022-10-16T11:15:35;15.20;99.90
20158;DHT22;10239;56.820;24.416;2022-10-16T11:18:07;15.30;99.90
20158;DHT22;10239;56.820;24.416;2022-10-16T11:20:42;15.30;99.90
20158;DHT22;10239;56.820;24.416;2022-10-16T11:23:28;15.30;99.90
20158;DHT22;10239;56.820;24.416;2022-10-16T11:26:00;15.50;99.90
20158;DHT22;10239;56.820;24.416;2022-10-16T11:28:31;15.60;99.90
20158;DHT22;10239;56.820;24.416;2022-10-16T11:31:41;15.60;99.90
20158;DHT22;10239;56.820;24.416;2022-10-16T11:34:29;15.50;99.90
20158;DHT22;10239;56.820;24.416;2022-10-16T11:37:14;15.50;99.90
20158;DHT22;10239;56.820;24.416;2022-10-16T11:39:44;15.70;99.90
20158;DHT22;10239;56.820;24.416;2022-10-16T11:42:22;15.80;99.90
20158;DHT22;10239;56.820;24.416;2022-10-16T11:45:23;15.80;99.90
20158;DHT22;10239;56.820;24.416;2022-10-16T11:48:02;15.50;99.90
20158;DHT22;10239;56.820;24.416;2022-10-16T11:50:48;15.50;99.90
20158;DHT22;10239;56.820;24.416;2022-10-16T11:56:04;15.50;99.90
20158;DHT22;10239;56.820;24.416;2022-10-16T11:58:50;15.50;99.90
20158;DHT22;10239;56.820;24.416;2022-10-16T12:04:30;15.40;99.90
20158;DHT22;10239;56.820;24.416;2022-10-16T12:07:17;15.30;99.90
20158;DHT22;10239;56.820;24.416;2022-10-16T12:09:46;15.40;99.90
20158;DHT22;10239;56.820;24.416;2022-10-16T12:15:28;15.30;99.90
20158;DHT22;10239;56.820;24.416;2022-10-16T12:18:21;15.10;99.90
20158;DHT22;10239;56.820;24.416;2022-10-16T12:20:59;15.20;99.90
20158;DHT22;10239;56.820;24.416;2022-10-16T12:23:37;15.20;99.90
20158;DHT22;10239;56.820;24.416;2022-10-16T12:26:05;15.10;99.90
20158;DHT22;10239;56.820;24.416;2022-10-16T12:28:33;15.20;99.90
20158;DHT22;10239;56.820;24.416;2022-10-16T12:31:05;15.20;99.90
20158;DHT22;10239;56.820;24.416;2022-10-16T12:36:15;15.20;99.90
20158;DHT22;10239;56.820;24.416;2022-10-16T12:38:52;15.40;99.90
20158;DHT22;10239;56.820;24.416;2022-10-16T12:41:35;15.50;99.90
20158;DHT22;10239;56.820;24.416;2022-10-16T12:44:05;15.40;99.90
20158;DHT22;10239;56.820;24.416;2022-10-16T12:46:34;15.30;99.90
20158;DHT22;10239;56.820;24.416;2022-10-16T12:49:21;15.40;99.90
20158;DHT22;10239;56.820;24.416;2022-10-16T12:51:49;15.40;99.90
20158;DHT22;10239;56.820;24.416;2022-10-16T12:54:49;15.30;99.90
20158;DHT22;10239;56.820;24.416;2022-10-16T12:57:52;15.20;99.90
20158;DHT22;10239;56.820;24.416;2022-10-16T13:14:54;15.30;99.90
20158;DHT22;10239;56.820;24.416;2022-10-16T13:17:34;15.30;99.90
20158;DHT22;10239;56.820;24.416;2022-10-16T13:23:18;15.20;99.90
20158;DHT22;10239;56.820;24.416;2022-10-16T13:28:38;15.20;99.90
20158;DHT22;10239;56.820;24.416;2022-10-16T13:31:20;15.30;99.90
20158;DHT22;10239;56.820;24.416;2022-10-16T13:33:51;15.10;99.90
20158;DHT22;10239;56.820;24.416;2022-10-16T13:36:51;15.30;99.90
20158;DHT22;10239;56.820;24.416;2022-10-16T13:39:23;15.30;99.90
20158;DHT22;10239;56.820;24.416;2022-10-16T13:42:13;15.50;99.90
20158;DHT22;10239;56.820;24.416;2022-10-16T13:44:50;15.40;99.90
20158;DHT22;10239;56.820;24.416;2022-10-16T13:47:24;15.60;99.90
20158;DHT22;10239;56.820;24.416;2022-10-16T13:50:11;15.50;99.90
20158;DHT22;10239;56.820;24.416;2022-10-16T13:52:39;15.40;99.90
20158;DHT22;10239;56.820;24.416;2022-10-16T13:55:15;15.50;99.90
20158;DHT22;10239;56.820;24.416;2022-10-16T13:57:44;15.60;99.90
20158;DHT22;10239;56.820;24.416;2022-10-16T14:00:26;15.40;99.90
20158;DHT22;10239;56.820;24.416;2022-10-16T14:03:02;15.40;99.90
20158;DHT22;10239;56.820;24.416;2022-10-16T14:05:30;15.40;99.90
20158;DHT22;10239;56.820;24.416;2022-10-16T14:07:59;15.40;99.90
20158;DHT22;10239;56.820;24.416;2022-10-16T14:10:31;15.30;99.90
20158;DHT22;10239;56.820;24.416;2022-10-16T14:13:05;15.10;99.90
20158;DHT22;10239;56.820;24.416;2022-10-16T14:15:35;15.00;99.90
20158;DHT22;10239;56.820;24.416;2022-10-16T14:18:03;14.90;99.90
20158;DHT22;10239;56.820;24.416;2022-10-16T14:20:33;14.90;99.90
20158;DHT22;10239;56.820;24.416;2022-10-16T14:23:23;14.90;99.90
20158;DHT22;10239;56.820;24.416;2022-10-16T14:26:06;14.80;99.90
20158;DHT22;10239;56.820;24.416;2022-10-16T14:28:43;14.70;99.90
20158;DHT22;10239;56.820;24.416;2022-10-16T14:31:32;14.90;99.90
20158;DHT22;10239;56.820;24.416;2022-10-16T14:34:00;14.80;99.90
20158;DHT22;10239;56.820;24.416;2022-10-16T14:36:28;14.90;99.90
20158;DHT22;10239;56.820;24.416;2022-10-16T14:39:03;14.80;99.90
20158;DHT22;10239;56.820;24.416;2022-10-16T14:41:33;14.90;99.90
20158;DHT22;10239;56.820;24.416;2022-10-16T14:44:11;14.80;99.90
20158;DHT22;10239;56.820;24.416;2022-10-16T14:46:41;14.90;99.90
20158;DHT22;10239;56.820;24.416;2022-10-16T14:51:39;14.90;99.90
20158;DHT22;10239;56.820;24.416;2022-10-16T14:54:09;15.00;99.90
20158;DHT22;10239;56.820;24.416;2022-10-16T14:56:53;14.90;99.90
20158;DHT22;10239;56.820;24.416;2022-10-16T14:59:37;15.10;99.90
20158;DHT22;10239;56.820;24.416;2022-10-16T15:02:34;15.00;99.90
20158;DHT22;10239;56.820;24.416;2022-10-16T15:07:46;14.90;99.90
20158;DHT22;10239;56.820;24.416;2022-10-16T15:10:16;15.10;99.90
20158;DHT22;10239;56.820;24.416;2022-10-16T15:12:44;15.00;99.90
20158;DHT22;10239;56.820;24.416;2022-10-16T15:15:33;15.10;99.90
20158;DHT22;10239;56.820;24.416;2022-10-16T15:18:03;14.90;99.90
20158;DHT22;10239;56.820;24.416;2022-10-16T15:20:34;14.90;99.90
20158;DHT22;10239;56.820;24.416;2022-10-16T15:23:14;14.80;99.90
20158;DHT22;10239;56.820;24.416;2022-10-16T15:25:43;14.90;99.90
20158;DHT22;10239;56.820;24.416;2022-10-16T15:28:12;14.90;99.90
20158;DHT22;10239;56.820;24.416;2022-10-16T15:30:40;14.80;99.90
20158;DHT22;10239;56.820;24.416;2022-10-16T15:33:13;14.60;99.90
20158;DHT22;10239;56.820;24.416;2022-10-16T15:35:42;14.70;99.90
20158;DHT22;10239;56.820;24.416;2022-10-16T15:38:11;14.70;99.90
20158;DHT22;10239;56.820;24.416;2022-10-16T15:40:40;14.70;99.90
20158;DHT22;10239;56.820;24.416;2022-10-16T15:43:08;14.70;99.90
20158;DHT22;10239;56.820;24.416;2022-10-16T15:45:36;14.80;99.90
20158;DHT22;10239;56.820;24.416;2022-10-16T15:48:04;14.70;99.90
20158;DHT22;10239;56.820;24.416;2022-10-16T15:50:32;14.60;99.90
20158;DHT22;10239;56.820;24.416;2022-10-16T15:52:59;14.80;99.90
20158;DHT22;10239;56.820;24.416;2022-10-16T15:55:27;14.90;99.90
20158;DHT22;10239;56.820;24.416;2022-10-16T15:57:54;15.00;99.90
20158;DHT22;10239;56.820;24.416;2022-10-16T16:00:22;15.00;99.90
20158;DHT22;10239;56.820;24.416;2022-10-16T16:02:53;15.10;99.90
20158;DHT22;10239;56.820;24.416;2022-10-16T16:05:22;15.00;99.90
20158;DHT22;10239;56.820;24.416;2022-10-16T16:07:50;14.90;99.90
20158;DHT22;10239;56.820;24.416;2022-10-16T16:10:18;14.90;99.90
20158;DHT22;10239;56.820;24.416;2022-10-16T16:12:47;14.90;99.90
20158;DHT22;10239;56.820;24.416;2022-10-16T16:15:20;15.00;99.90
20158;DHT22;10239;56.820;24.416;2022-10-16T16:17:48;15.00;99.90
20158;DHT22;10239;56.820;24.416;2022-10-16T16:20:16;15.10;99.90
20158;DHT22;10239;56.820;24.416;2022-10-16T16:22:44;15.10;99.90
20158;DHT22;10239;56.820;24.416;2022-10-16T16:25:11;15.10;99.90
20158;DHT22;10239;56.820;24.416;2022-10-16T16:27:39;15.10;99.90
20158;DHT22;10239;56.820;24.416;2022-10-16T16:30:07;14.90;99.90
20158;DHT22;10239;56.820;24.416;2022-10-16T16:32:35;15.10;99.90
20158;DHT22;10239;56.820;24.416;2022-10-16T16:35:03;15.20;99.90
20158;DHT22;10239;56.820;24.416;2022-10-16T16:37:30;15.20;99.90
20158;DHT22;10239;56.820;24.416;2022-10-16T16:39:58;15.30;99.90
20158;DHT22;10239;56.820;24.416;2022-10-16T16:42:26;15.20;99.90
20158;DHT22;10239;56.820;24.416;2022-10-16T16:44:54;15.30;99.90
20158;DHT22;10239;56.820;24.416;2022-10-16T16:47:22;15.20;99.90
20158;DHT22;10239;56.820;24.416;2022-10-16T16:49:49;15.30;99.90
20158;DHT22;10239;56.820;24.416;2022-10-16T16:52:18;15.40;99.90
20158;DHT22;10239;56.820;24.416;2022-10-16T16:54:47;15.40;99.90
20158;DHT22;10239;56.820;24.416;2022-10-16T16:57:19;15.50;99.90
20158;DHT22;10239;56.820;24.416;2022-10-16T16:59:50;15.50;99.90
20158;DHT22;10239;56.820;24.416;2022-10-16T17:02:18;15.60;99.90
20158;DHT22;10239;56.820;24.416;2022-10-16T17:04:45;15.60;99.90
20158;DHT22;10239;56.820;24.416;2022-10-16T17:07:13;15.60;99.90
20158;DHT22;10239;56.820;24.416;2022-10-16T17:09:40;15.60;99.90
20158;DHT22;10239;56.820;24.416;2022-10-16T17:12:08;15.60;99.90
20158;DHT22;10239;56.820;24.416;2022-10-16T17:14:35;15.60;99.90
20158;DHT22;10239;56.820;24.416;2022-10-16T17:17:02;15.70;99.90
20158;DHT22;10239;56.820;24.416;2022-10-16T17:19:30;15.70;99.90
20158;DHT22;10239;56.820;24.416;2022-10-16T17:21:57;15.70;99.90
20158;DHT22;10239;56.820;24.416;2022-10-16T17:24:25;15.70;99.90
20158;DHT22;10239;56.820;24.416;2022-10-16T17:26:52;15.70;99.90
20158;DHT22;10239;56.820;24.416;2022-10-16T17:29:20;15.80;99.90
20158;DHT22;10239;56.820;24.416;2022-10-16T17:31:47;15.80;99.90